Terminal Aerodrome Forecast
Issued by NWS Upton, NY

Home | Current Version | Previous Version | Text Only | Print | Product List | Glossary On
Versions: 1 2 3 4 5 6 7 8 9 10 11 12 13 14 15 16 17 18 19 20 21 22 23 24 25 26 27 28 29 30 31 32 33 34 35
266
FTUS41 KOKX 312208 AAC
TAFEWR
TAF AMD
KEWR 312208Z 3122/0124 15008KT P6SM BKN150
     FM010100 20007KT P6SM BKN120
     FM010600 VRB04KT 6SM -SHRA BR BKN050
      TEMPO 0108/0112 5SM -SHRA BR BKN030
     FM011600 VRB05KT P6SM VCSH BKN050=

USA.gov is the U.S. government's official web portal to all federal, state and local government web resources and services.